地図

経路データ

SID SEASON NUMBER BASIN SUBBASIN NAME ISO_TIME NATURE LAT LON WMO_WIND WMO_PRES WMO_AGENCY TRACK_TYPE DIST2LAND LANDFALL IFLAG USA_AGENCY USA_ATCF_ID USA_LAT USA_LON USA_RECORD USA_STATUS USA_WIND USA_PRES USA_SSHS USA_R34_NE USA_R34_SE USA_R34_SW USA_R34_NW USA_R50_NE USA_R50_SE USA_R50_SW USA_R50_NW USA_R64_NE USA_R64_SE USA_R64_SW USA_R64_NW USA_POCI USA_ROCI USA_RMW USA_EYE TOKYO_LAT TOKYO_LON TOKYO_GRADE TOKYO_WIND TOKYO_PRES TOKYO_R50_DIR TOKYO_R50_LONG TOKYO_R50_SHORT TOKYO_R30_DIR TOKYO_R30_LONG TOKYO_R30_SHORT TOKYO_LAND CMA_LAT CMA_LON CMA_CAT CMA_WIND CMA_PRES HKO_LAT HKO_LON HKO_CAT HKO_WIND HKO_PRES NEWDELHI_LAT NEWDELHI_LON NEWDELHI_GRADE NEWDELHI_WIND NEWDELHI_PRES NEWDELHI_CI NEWDELHI_DP NEWDELHI_POCI REUNION_LAT REUNION_LON REUNION_TYPE REUNION_WIND REUNION_PRES REUNION_TNUM REUNION_CI REUNION_RMW REUNION_R34_NE REUNION_R34_SE REUNION_R34_SW REUNION_R34_NW REUNION_R50_NE REUNION_R50_SE REUNION_R50_SW REUNION_R50_NW REUNION_R64_NE REUNION_R64_SE REUNION_R64_SW REUNION_R64_NW BOM_LAT BOM_LON BOM_TYPE BOM_WIND BOM_PRES BOM_TNUM BOM_CI BOM_RMW BOM_R34_NE BOM_R34_SE BOM_R34_SW BOM_R34_NW BOM_R50_NE BOM_R50_SE BOM_R50_SW BOM_R50_NW BOM_R64_NE BOM_R64_SE BOM_R64_SW BOM_R64_NW BOM_ROCI BOM_POCI BOM_EYE BOM_POS_METHOD BOM_PRES_METHOD NADI_LAT NADI_LON NADI_CAT NADI_WIND NADI_PRES WELLINGTON_LAT WELLINGTON_LON WELLINGTON_WIND WELLINGTON_PRES DS824_LAT DS824_LON DS824_STAGE DS824_WIND DS824_PRES TD9636_LAT TD9636_LON TD9636_STAGE TD9636_WIND TD9636_PRES TD9635_LAT TD9635_LON TD9635_WIND TD9635_PRES TD9635_ROCI NEUMANN_LAT NEUMANN_LON NEUMANN_CLASS NEUMANN_WIND NEUMANN_PRES MLC_LAT MLC_LON MLC_CLASS MLC_WIND MLC_PRES USA_GUST BOM_GUST BOM_GUST_PER REUNION_GUST REUNION_GUST_PER USA_SEAHGT USA_SEARAD_NE USA_SEARAD_SE USA_SEARAD_SW USA_SEARAD_NW STORM_SPEED STORM_DIR
1970263N27305 1970 118 NA NA NOT_NAMED 1970-09-19 18:00:00 TS 26.8000 -55.3000 25 hurdat_atl main 1412 1382 O_____________ hurdat_atl AL211970 26.8000 -55.3000 TD 25 -1 7 277
1970263N27305 1970 118 NA NA NOT_NAMED 1970-09-19 21:00:00 TS 26.8452 -55.6900 main 1382 1359 P_____________ AL211970 26.8452 -55.6900 TD 25 -1 7 278
1970263N27305 1970 118 NA NA NOT_NAMED 1970-09-20 00:00:00 TS 26.9000 -56.1000 25 hurdat_atl main 1359 1338 O_____________ hurdat_atl AL211970 26.9000 -56.1000 TD 25 -1 8 279
1970263N27305 1970 118 NA NA NOT_NAMED 1970-09-20 03:00:00 TS 26.9649 -56.5424 main 1338 1303 P_____________ AL211970 26.9649 -56.5424 TD 27 -1 8 277
1970263N27305 1970 118 NA NA NOT_NAMED 1970-09-20 06:00:00 TS 27.0000 -57.0000 30 hurdat_atl main 1303 1276 O_____________ hurdat_atl AL211970 27.0000 -57.0000 TD 30 -1 8 271
1970263N27305 1970 118 NA NA NOT_NAMED 1970-09-20 09:00:00 TS 26.9725 -57.4726 main 1269 1234 P_____________ AL211970 26.9725 -57.4726 TD 30 -1 8 263
1970263N27305 1970 118 NA NA NOT_NAMED 1970-09-20 12:00:00 TS 26.9000 -57.9000 30 hurdat_atl main 1234 1206 O_____________ hurdat_atl AL211970 26.9000 -57.9000 TD 30 -1 7 256
1970263N27305 1970 118 NA NA NOT_NAMED 1970-09-20 15:00:00 TS 26.7999 -58.2375 main 1206 1179 P_____________ AL211970 26.7999 -58.2375 TD 32 -1 6 250
1970263N27305 1970 118 NA NA NOT_NAMED 1970-09-20 18:00:00 TS 26.7000 -58.5000 35 hurdat_atl main 1179 1158 O_____________ hurdat_atl AL211970 26.7000 -58.5000 TS 35 0 4 249
1970263N27305 1970 118 NA NA NOT_NAMED 1970-09-20 21:00:00 TS 26.6424 -58.7074 main 1158 1145 P_____________ AL211970 26.6424 -58.7074 TS 37 0 4 254
1970263N27305 1970 118 NA NA NOT_NAMED 1970-09-21 00:00:00 TS 26.6000 -58.9000 40 hurdat_atl main 1145 1124 O_____________ hurdat_atl AL211970 26.6000 -58.9000 TS 40 0 4 256
1970263N27305 1970 118 NA NA NOT_NAMED 1970-09-21 03:00:00 TS 26.5425 -59.1500 main 1118 1106 P_____________ AL211970 26.5425 -59.1500 TS 40 0 5 257
1970263N27305 1970 118 NA NA NOT_NAMED 1970-09-21 06:00:00 TS 26.5000 -59.4000 40 hurdat_atl main 1106 1094 O_____________ hurdat_atl AL211970 26.5000 -59.4000 TS 40 0 4 263
1970263N27305 1970 118 NA NA NOT_NAMED 1970-09-21 09:00:00 TS 26.4925 -59.6225 main 1094 1083 P_____________ AL211970 26.4925 -59.6225 TS 40 0 4 270
1970263N27305 1970 118 NA NA NOT_NAMED 1970-09-21 12:00:00 TS 26.5000 -59.8000 40 hurdat_atl main 1083 1077 O_____________ hurdat_atl AL211970 26.5000 -59.8000 TS 40 0 3 272
1970263N27305 1970 118 NA NA NOT_NAMED 1970-09-21 15:00:00 TS 26.5000 -59.9150 main 1077 1072 P_____________ AL211970 26.5000 -59.9150 TS 37 0 2 270
1970263N27305 1970 118 NA NA NOT_NAMED 1970-09-21 18:00:00 TS 26.5000 -60.0000 35 hurdat_atl main 1072 1066 O_____________ hurdat_atl AL211970 26.5000 -60.0000 TS 35 0 2 270
1970263N27305 1970 118 NA NA NOT_NAMED 1970-09-21 21:00:00 TS 26.5000 -60.1000 main 1066 1061 P_____________ AL211970 26.5000 -60.1000 TS 35 0 2 270
1970263N27305 1970 118 NA NA NOT_NAMED 1970-09-22 00:00:00 TS 26.5000 -60.2000 35 hurdat_atl main 1061 1056 O_____________ hurdat_atl AL211970 26.5000 -60.2000 TS 35 0 2 268
1970263N27305 1970 118 NA NA NOT_NAMED 1970-09-22 03:00:00 TS 26.4925 -60.3000 main 1056 1050 P_____________ AL211970 26.4925 -60.3000 TS 32 -1 2 270
1970263N27305 1970 118 NA NA NOT_NAMED 1970-09-22 06:00:00 TS 26.5000 -60.4000 30 hurdat_atl main 1050 1045 O_____________ hurdat_atl AL211970 26.5000 -60.4000 TD 30 -1 2 286
1970263N27305 1970 118 NA NA NOT_NAMED 1970-09-22 09:00:00 TS 26.5425 -60.5000 main 1045 1045 P_____________ AL211970 26.5425 -60.5000 TD 30 -1 2 300
1970263N27305 1970 118 NA NA NOT_NAMED 1970-09-22 12:00:00 TS 26.6000 -60.6000 30 hurdat_atl main 1050 1045 O_____________ hurdat_atl AL211970 26.6000 -60.6000 TD 30 -1 2 300
1970263N27305 1970 118 NA NA NOT_NAMED 1970-09-22 15:00:00 TS 26.6425 -60.7000 main 1045 1045 P_____________ AL211970 26.6425 -60.7000 TD 27 -1 2 300
1970263N27305 1970 118 NA NA NOT_NAMED 1970-09-22 18:00:00 TS 26.7000 -60.8000 25 hurdat_atl main 1050 1045 O_____________ hurdat_atl AL211970 26.7000 -60.8000 TD 25 -1 2 310
1970263N27305 1970 118 NA NA NOT_NAMED 1970-09-22 21:00:00 TS 26.7900 -60.8999 main 1055 1050 P_____________ AL211970 26.7900 -60.8999 TD 25 -1 3 318
1970263N27305 1970 118 NA NA NOT_NAMED 1970-09-23 00:00:00 TS 26.9000 -61.0000 25 hurdat_atl main 1060 O_____________ hurdat_atl AL211970 26.9000 -61.0000 TD 25 -1 3 320

IBTrACS Databaseについて

本データベースは、米国NOAAが公開する1842年以降の世界の熱帯低気圧のベストトラックデータアーカイブInternational Best Track Archive for Climate Stewardship (IBTrACS)を、ウェブで閲覧しやすい形式に変換したものです。

最終更新日:2022-05-24